sensor_id;sensor_type;location;lat;lon;timestamp;pressure;altitude;pressure_sealevel;temperature;humidity
18678;BME280;9469;51.114;13.914;2023-09-19T00:01:06;98054.06;;;17.93;100.00
18678;BME280;9469;51.114;13.914;2023-09-19T00:06:13;98049.97;;;17.76;100.00
18678;BME280;9469;51.114;13.914;2023-09-19T00:11:19;98054.13;;;17.48;100.00
18678;BME280;9469;51.114;13.914;2023-09-19T00:16:30;98060.38;;;17.33;100.00
18678;BME280;9469;51.114;13.914;2023-09-19T00:21:36;98054.72;;;17.38;100.00
18678;BME280;9469;51.114;13.914;2023-09-19T00:26:43;98051.50;;;17.51;100.00
18678;BME280;9469;51.114;13.914;2023-09-19T00:31:52;98051.94;;;17.53;100.00
18678;BME280;9469;51.114;13.914;2023-09-19T00:36:59;98038.19;;;17.36;100.00
18678;BME280;9469;51.114;13.914;2023-09-19T00:42:05;98023.13;;;17.31;100.00
18678;BME280;9469;51.114;13.914;2023-09-19T00:47:14;98030.13;;;17.36;100.00
18678;BME280;9469;51.114;13.914;2023-09-19T00:52:20;98025.53;;;17.36;100.00
18678;BME280;9469;51.114;13.914;2023-09-19T00:57:26;98034.72;;;17.35;100.00
18678;BME280;9469;51.114;13.914;2023-09-19T01:02:35;98029.81;;;16.95;100.00
18678;BME280;9469;51.114;13.914;2023-09-19T01:07:44;98027.81;;;16.89;100.00
18678;BME280;9469;51.114;13.914;2023-09-19T01:12:55;98021.69;;;16.92;100.00
18678;BME280;9469;51.114;13.914;2023-09-19T01:18:16;98038.28;;;16.75;100.00
18678;BME280;9469;51.114;13.914;2023-09-19T01:23:37;98040.09;;;16.90;100.00
18678;BME280;9469;51.114;13.914;2023-09-19T01:29:01;98050.78;;;17.09;100.00
18678;BME280;9469;51.114;13.914;2023-09-19T01:34:17;98059.03;;;17.19;100.00
18678;BME280;9469;51.114;13.914;2023-09-19T01:39:23;98048.16;;;17.12;100.00
18678;BME280;9469;51.114;13.914;2023-09-19T01:44:34;98042.31;;;17.07;100.00
18678;BME280;9469;51.114;13.914;2023-09-19T01:49:50;98047.38;;;17.12;100.00
18678;BME280;9469;51.114;13.914;2023-09-19T01:55:05;98041.03;;;17.23;100.00
18678;BME280;9469;51.114;13.914;2023-09-19T02:00:13;98046.53;;;17.53;100.00
18678;BME280;9469;51.114;13.914;2023-09-19T02:05:25;98040.16;;;17.61;100.00
18678;BME280;9469;51.114;13.914;2023-09-19T02:10:30;98042.09;;;17.64;100.00
18678;BME280;9469;51.114;13.914;2023-09-19T02:15:37;98061.94;;;17.79;100.00
18678;BME280;9469;51.114;13.914;2023-09-19T02:20:45;98057.41;;;17.60;100.00
18678;BME280;9469;51.114;13.914;2023-09-19T02:25:53;98063.13;;;17.81;100.00
18678;BME280;9469;51.114;13.914;2023-09-19T02:31:00;98069.75;;;17.61;100.00
18678;BME280;9469;51.114;13.914;2023-09-19T02:36:10;98056.03;;;17.70;100.00
18678;BME280;9469;51.114;13.914;2023-09-19T02:41:15;98089.28;;;17.84;100.00
18678;BME280;9469;51.114;13.914;2023-09-19T02:46:20;98084.91;;;17.50;100.00
18678;BME280;9469;51.114;13.914;2023-09-19T02:51:29;98087.28;;;17.55;100.00
18678;BME280;9469;51.114;13.914;2023-09-19T02:56:34;98091.34;;;17.23;100.00
18678;BME280;9469;51.114;13.914;2023-09-19T03:01:40;98087.22;;;17.29;100.00
18678;BME280;9469;51.114;13.914;2023-09-19T03:06:53;98098.78;;;17.10;100.00
18678;BME280;9469;51.114;13.914;2023-09-19T03:12:05;98101.13;;;17.12;100.00
18678;BME280;9469;51.114;13.914;2023-09-19T03:17:10;98106.19;;;17.17;100.00
18678;BME280;9469;51.114;13.914;2023-09-19T03:22:19;98102.41;;;17.18;100.00
18678;BME280;9469;51.114;13.914;2023-09-19T03:27:33;98107.69;;;17.14;100.00
18678;BME280;9469;51.114;13.914;2023-09-19T03:32:44;98117.13;;;17.05;100.00
18678;BME280;9469;51.114;13.914;2023-09-19T03:37:56;98119.34;;;17.22;100.00
18678;BME280;9469;51.114;13.914;2023-09-19T03:43:01;98111.53;;;17.36;100.00
18678;BME280;9469;51.114;13.914;2023-09-19T03:48:08;98115.47;;;17.42;100.00
18678;BME280;9469;51.114;13.914;2023-09-19T03:53:17;98124.31;;;17.43;100.00
18678;BME280;9469;51.114;13.914;2023-09-19T03:58:22;98121.28;;;17.44;100.00
18678;BME280;9469;51.114;13.914;2023-09-19T04:03:27;98116.31;;;17.46;100.00
18678;BME280;9469;51.114;13.914;2023-09-19T04:08:40;98121.50;;;17.55;100.00
18678;BME280;9469;51.114;13.914;2023-09-19T04:13:46;98123.41;;;17.54;100.00
18678;BME280;9469;51.114;13.914;2023-09-19T04:18:52;98123.94;;;17.63;100.00
18678;BME280;9469;51.114;13.914;2023-09-19T04:23:59;98129.34;;;17.67;100.00
18678;BME280;9469;51.114;13.914;2023-09-19T04:29:04;98126.09;;;17.54;100.00
18678;BME280;9469;51.114;13.914;2023-09-19T04:34:13;98124.09;;;17.51;100.00
18678;BME280;9469;51.114;13.914;2023-09-19T04:39:21;98122.47;;;17.24;100.00
18678;BME280;9469;51.114;13.914;2023-09-19T04:44:28;98131.47;;;17.35;100.00
18678;BME280;9469;51.114;13.914;2023-09-19T04:49:36;98148.44;;;17.39;100.00
18678;BME280;9469;51.114;13.914;2023-09-19T04:54:45;98151.25;;;17.23;100.00
18678;BME280;9469;51.114;13.914;2023-09-19T04:59:50;98147.00;;;17.23;100.00
18678;BME280;9469;51.114;13.914;2023-09-19T05:04:56;98148.22;;;17.25;100.00
18678;BME280;9469;51.114;13.914;2023-09-19T05:10:07;98166.66;;;17.27;100.00
18678;BME280;9469;51.114;13.914;2023-09-19T05:15:17;98174.78;;;17.30;100.00
18678;BME280;9469;51.114;13.914;2023-09-19T05:20:27;98187.00;;;17.47;100.00
18678;BME280;9469;51.114;13.914;2023-09-19T05:25:41;98191.75;;;17.53;100.00
18678;BME280;9469;51.114;13.914;2023-09-19T05:30:46;98190.63;;;17.35;100.00
18678;BME280;9469;51.114;13.914;2023-09-19T05:35:52;98204.63;;;17.44;100.00
18678;BME280;9469;51.114;13.914;2023-09-19T05:41:01;98200.97;;;17.52;100.00
18678;BME280;9469;51.114;13.914;2023-09-19T05:46:07;98206.41;;;17.56;100.00
18678;BME280;9469;51.114;13.914;2023-09-19T05:51:13;98200.97;;;17.52;100.00
18678;BME280;9469;51.114;13.914;2023-09-19T05:56:24;98217.09;;;17.52;100.00
18678;BME280;9469;51.114;13.914;2023-09-19T06:01:30;98223.84;;;17.46;100.00
18678;BME280;9469;51.114;13.914;2023-09-19T06:06:37;98230.59;;;17.56;100.00
18678;BME280;9469;51.114;13.914;2023-09-19T06:11:45;98222.53;;;17.78;100.00
18678;BME280;9469;51.114;13.914;2023-09-19T06:16:53;98229.50;;;17.79;100.00
18678;BME280;9469;51.114;13.914;2023-09-19T06:21:58;98233.03;;;17.83;100.00
18678;BME280;9469;51.114;13.914;2023-09-19T06:27:06;98237.63;;;18.32;100.00
18678;BME280;9469;51.114;13.914;2023-09-19T06:32:15;98239.19;;;18.33;100.00
18678;BME280;9469;51.114;13.914;2023-09-19T06:37:27;98248.84;;;18.56;100.00
18678;BME280;9469;51.114;13.914;2023-09-19T06:42:35;98254.47;;;18.25;100.00
18678;BME280;9469;51.114;13.914;2023-09-19T06:47:48;98271.66;;;18.66;100.00
18678;BME280;9469;51.114;13.914;2023-09-19T06:52:55;98278.16;;;19.17;100.00
18678;BME280;9469;51.114;13.914;2023-09-19T06:58:04;98281.84;;;20.09;100.00
18678;BME280;9469;51.114;13.914;2023-09-19T07:03:14;98270.16;;;22.10;92.04
18678;BME280;9469;51.114;13.914;2023-09-19T07:08:27;98290.28;;;22.80;87.58
18678;BME280;9469;51.114;13.914;2023-09-19T07:13:37;98301.84;;;23.99;81.82
18678;BME280;9469;51.114;13.914;2023-09-19T07:18:42;98303.53;;;23.79;82.92
18678;BME280;9469;51.114;13.914;2023-09-19T07:23:48;98329.53;;;24.42;77.06
18678;BME280;9469;51.114;13.914;2023-09-19T07:28:57;98331.41;;;24.48;79.91
18678;BME280;9469;51.114;13.914;2023-09-19T07:39:51;98325.66;;;26.18;72.22
18678;BME280;9469;51.114;13.914;2023-09-19T07:45:01;98331.91;;;27.70;67.37
18678;BME280;9469;51.114;13.914;2023-09-19T07:50:16;98362.66;;;24.26;74.82
18678;BME280;9469;51.114;13.914;2023-09-19T07:55:26;98364.59;;;23.35;78.26
18678;BME280;9469;51.114;13.914;2023-09-19T08:00:34;98362.63;;;24.84;72.82
18678;BME280;9469;51.114;13.914;2023-09-19T08:05:41;98360.91;;;24.50;71.58
18678;BME280;9469;51.114;13.914;2023-09-19T08:10:52;98364.72;;;26.62;64.04
18678;BME280;9469;51.114;13.914;2023-09-19T08:16:04;98374.09;;;24.55;66.07
18678;BME280;9469;51.114;13.914;2023-09-19T08:21:11;98375.97;;;24.61;65.46
18678;BME280;9469;51.114;13.914;2023-09-19T08:26:19;98383.22;;;24.27;64.95
18678;BME280;9469;51.114;13.914;2023-09-19T08:31:26;98384.06;;;24.75;63.77
18678;BME280;9469;51.114;13.914;2023-09-19T08:36:32;98374.72;;;25.88;61.36
18678;BME280;9469;51.114;13.914;2023-09-19T08:41:39;98389.44;;;23.20;69.06
18678;BME280;9469;51.114;13.914;2023-09-19T08:46:48;98388.41;;;24.62;65.80
18678;BME280;9469;51.114;13.914;2023-09-19T08:52:03;98391.75;;;24.29;68.69
18678;BME280;9469;51.114;13.914;2023-09-19T08:57:13;98391.84;;;25.18;65.77
18678;BME280;9469;51.114;13.914;2023-09-19T09:02:26;98400.66;;;24.33;67.09
18678;BME280;9469;51.114;13.914;2023-09-19T09:07:33;98411.28;;;24.10;68.45
18678;BME280;9469;51.114;13.914;2023-09-19T09:12:40;98392.38;;;26.64;63.31
18678;BME280;9469;51.114;13.914;2023-09-19T09:17:49;98412.78;;;24.18;68.16
18678;BME280;9469;51.114;13.914;2023-09-19T09:22:56;98409.84;;;24.53;67.30
18678;BME280;9469;51.114;13.914;2023-09-19T09:28:05;98411.56;;;25.29;63.30
18678;BME280;9469;51.114;13.914;2023-09-19T09:33:16;98404.31;;;26.47;60.34
18678;BME280;9469;51.114;13.914;2023-09-19T09:38:25;98407.09;;;26.43;61.41
18678;BME280;9469;51.114;13.914;2023-09-19T09:43:37;98401.63;;;25.86;61.73
18678;BME280;9469;51.114;13.914;2023-09-19T09:48:48;98407.75;;;26.51;61.83
18678;BME280;9469;51.114;13.914;2023-09-19T09:54:31;98408.47;;;25.27;63.38
18678;BME280;9469;51.114;13.914;2023-09-19T09:59:50;98407.19;;;25.38;62.83
18678;BME280;9469;51.114;13.914;2023-09-19T10:05:10;98414.75;;;25.61;62.41
18678;BME280;9469;51.114;13.914;2023-09-19T10:10:38;98394.28;;;27.13;59.85
18678;BME280;9469;51.114;13.914;2023-09-19T10:15:58;98400.81;;;26.19;60.83
18678;BME280;9469;51.114;13.914;2023-09-19T10:21:10;98406.25;;;25.89;62.57
18678;BME280;9469;51.114;13.914;2023-09-19T10:26:19;98409.31;;;27.01;59.48
18678;BME280;9469;51.114;13.914;2023-09-19T10:31:28;98428.50;;;25.47;60.95
18678;BME280;9469;51.114;13.914;2023-09-19T10:36:37;98421.34;;;25.23;62.14
18678;BME280;9469;51.114;13.914;2023-09-19T10:41:55;98429.31;;;25.03;62.44
18678;BME280;9469;51.114;13.914;2023-09-19T10:47:03;98421.47;;;25.09;61.40
18678;BME280;9469;51.114;13.914;2023-09-19T10:52:09;98423.72;;;24.69;62.40
18678;BME280;9469;51.114;13.914;2023-09-19T10:57:24;98421.38;;;25.19;60.74
18678;BME280;9469;51.114;13.914;2023-09-19T11:02:30;98417.09;;;25.18;60.95
18678;BME280;9469;51.114;13.914;2023-09-19T11:07:56;98425.41;;;24.49;62.16
18678;BME280;9469;51.114;13.914;2023-09-19T11:19:04;98416.31;;;24.11;62.70
18678;BME280;9469;51.114;13.914;2023-09-19T11:24:30;98417.13;;;24.67;61.43
18678;BME280;9469;51.114;13.914;2023-09-19T11:29:38;98419.22;;;23.55;64.19
18678;BME280;9469;51.114;13.914;2023-09-19T11:34:48;98420.44;;;23.22;65.00
18678;BME280;9469;51.114;13.914;2023-09-19T11:40:06;98416.63;;;24.24;64.90
18678;BME280;9469;51.114;13.914;2023-09-19T11:51:10;98421.75;;;24.15;62.29
18678;BME280;9469;51.114;13.914;2023-09-19T11:56:19;98420.25;;;23.96;59.89
18678;BME280;9469;51.114;13.914;2023-09-19T12:01:29;98422.16;;;24.06;58.51
18678;BME280;9469;51.114;13.914;2023-09-19T12:06:38;98409.59;;;24.92;59.81
18678;BME280;9469;51.114;13.914;2023-09-19T12:11:46;98413.59;;;24.04;61.28
18678;BME280;9469;51.114;13.914;2023-09-19T12:16:54;98424.88;;;23.96;64.51
18678;BME280;9469;51.114;13.914;2023-09-19T12:22:03;98412.44;;;24.71;63.51
18678;BME280;9469;51.114;13.914;2023-09-19T12:27:11;98416.19;;;24.33;63.25
18678;BME280;9469;51.114;13.914;2023-09-19T12:32:17;98417.28;;;24.46;63.32
18678;BME280;9469;51.114;13.914;2023-09-19T12:37:27;98416.66;;;24.82;61.79
18678;BME280;9469;51.114;13.914;2023-09-19T12:42:33;98419.31;;;24.31;63.00
18678;BME280;9469;51.114;13.914;2023-09-19T12:47:38;98415.97;;;24.06;63.15
18678;BME280;9469;51.114;13.914;2023-09-19T12:52:49;98413.63;;;23.97;63.71
18678;BME280;9469;51.114;13.914;2023-09-19T12:58:02;98413.31;;;23.81;63.86
18678;BME280;9469;51.114;13.914;2023-09-19T13:03:27;98413.47;;;24.29;62.58
18678;BME280;9469;51.114;13.914;2023-09-19T13:08:38;98413.34;;;24.50;61.80
18678;BME280;9469;51.114;13.914;2023-09-19T13:13:47;98416.13;;;23.46;63.52
18678;BME280;9469;51.114;13.914;2023-09-19T13:18:56;98417.50;;;24.00;63.27
18678;BME280;9469;51.114;13.914;2023-09-19T13:24:22;98412.94;;;23.76;63.64
18678;BME280;9469;51.114;13.914;2023-09-19T13:29:31;98406.41;;;23.56;64.14
18678;BME280;9469;51.114;13.914;2023-09-19T13:34:38;98404.84;;;23.65;64.25
18678;BME280;9469;51.114;13.914;2023-09-19T13:39:46;98415.69;;;23.62;63.50
18678;BME280;9469;51.114;13.914;2023-09-19T13:44:56;98408.59;;;23.96;62.75
18678;BME280;9469;51.114;13.914;2023-09-19T13:50:02;98410.34;;;23.23;63.61
18678;BME280;9469;51.114;13.914;2023-09-19T13:55:12;98410.72;;;23.42;63.09
18678;BME280;9469;51.114;13.914;2023-09-19T14:00:22;98414.50;;;23.77;62.92
18678;BME280;9469;51.114;13.914;2023-09-19T14:05:31;98409.91;;;23.60;62.46
18678;BME280;9469;51.114;13.914;2023-09-19T14:10:39;98414.22;;;23.39;64.04
18678;BME280;9469;51.114;13.914;2023-09-19T14:15:47;98403.03;;;23.02;64.31
18678;BME280;9469;51.114;13.914;2023-09-19T14:20:52;98405.34;;;23.11;63.57
18678;BME280;9469;51.114;13.914;2023-09-19T14:26:03;98399.75;;;23.78;63.45
18678;BME280;9469;51.114;13.914;2023-09-19T14:31:11;98400.25;;;23.51;64.35
18678;BME280;9469;51.114;13.914;2023-09-19T14:36:27;98389.72;;;23.64;64.71
18678;BME280;9469;51.114;13.914;2023-09-19T14:41:52;98385.44;;;23.67;62.24
18678;BME280;9469;51.114;13.914;2023-09-19T14:46:58;98395.19;;;23.53;61.20
18678;BME280;9469;51.114;13.914;2023-09-19T14:52:06;98387.88;;;23.12;62.92
18678;BME280;9469;51.114;13.914;2023-09-19T14:57:15;98385.19;;;22.87;64.22
18678;BME280;9469;51.114;13.914;2023-09-19T15:07:29;98393.31;;;22.80;64.70
18678;BME280;9469;51.114;13.914;2023-09-19T15:12:37;98379.34;;;23.20;64.71
18678;BME280;9469;51.114;13.914;2023-09-19T15:17:42;98381.66;;;23.25;63.49
18678;BME280;9469;51.114;13.914;2023-09-19T15:22:50;98381.13;;;23.76;63.76
18678;BME280;9469;51.114;13.914;2023-09-19T15:27:59;98387.44;;;23.27;62.55
18678;BME280;9469;51.114;13.914;2023-09-19T15:33:09;98377.03;;;23.22;60.50
18678;BME280;9469;51.114;13.914;2023-09-19T15:38:14;98369.28;;;23.17;60.58
18678;BME280;9469;51.114;13.914;2023-09-19T15:43:23;98372.75;;;23.18;62.22
18678;BME280;9469;51.114;13.914;2023-09-19T15:48:28;98377.84;;;22.84;62.45
18678;BME280;9469;51.114;13.914;2023-09-19T15:53:42;98376.66;;;22.64;60.68
18678;BME280;9469;51.114;13.914;2023-09-19T15:58:51;98382.88;;;22.71;60.34
18678;BME280;9469;51.114;13.914;2023-09-19T16:03:58;98380.19;;;22.68;60.21
18678;BME280;9469;51.114;13.914;2023-09-19T16:09:03;98372.41;;;22.80;60.01
18678;BME280;9469;51.114;13.914;2023-09-19T16:14:13;98370.03;;;22.26;60.70
18678;BME280;9469;51.114;13.914;2023-09-19T16:19:22;98375.84;;;22.35;60.85
18678;BME280;9469;51.114;13.914;2023-09-19T16:24:28;98371.13;;;22.00;61.53
18678;BME280;9469;51.114;13.914;2023-09-19T16:29:36;98373.06;;;22.03;61.92
18678;BME280;9469;51.114;13.914;2023-09-19T16:34:42;98380.84;;;22.16;61.05
18678;BME280;9469;51.114;13.914;2023-09-19T16:39:47;98395.03;;;21.77;61.85
18678;BME280;9469;51.114;13.914;2023-09-19T16:44:57;98388.41;;;21.71;61.48
18678;BME280;9469;51.114;13.914;2023-09-19T16:50:03;98397.94;;;21.44;62.37
18678;BME280;9469;51.114;13.914;2023-09-19T16:55:13;98413.78;;;21.42;63.06
18678;BME280;9469;51.114;13.914;2023-09-19T17:00:22;98409.00;;;21.18;63.45
18678;BME280;9469;51.114;13.914;2023-09-19T17:05:29;98426.56;;;20.94;62.57
18678;BME280;9469;51.114;13.914;2023-09-19T17:10:35;98425.34;;;20.85;62.17
18678;BME280;9469;51.114;13.914;2023-09-19T17:15:59;98422.72;;;20.95;62.02
18678;BME280;9469;51.114;13.914;2023-09-19T17:21:06;98435.28;;;20.73;61.51
18678;BME280;9469;51.114;13.914;2023-09-19T17:26:13;98435.72;;;20.79;61.44
18678;BME280;9469;51.114;13.914;2023-09-19T17:31:26;98449.47;;;20.63;61.59
18678;BME280;9469;51.114;13.914;2023-09-19T17:36:35;98457.75;;;20.41;60.97
18678;BME280;9469;51.114;13.914;2023-09-19T17:41:42;98448.34;;;20.28;60.73
18678;BME280;9469;51.114;13.914;2023-09-19T17:46:50;98464.03;;;20.19;60.69
18678;BME280;9469;51.114;13.914;2023-09-19T17:52:00;98458.06;;;20.06;59.96
18678;BME280;9469;51.114;13.914;2023-09-19T17:57:06;98464.88;;;19.93;60.21
18678;BME280;9469;51.114;13.914;2023-09-19T18:02:16;98471.03;;;19.90;60.37
18678;BME280;9469;51.114;13.914;2023-09-19T18:07:23;98472.56;;;19.91;60.07
18678;BME280;9469;51.114;13.914;2023-09-19T18:12:28;98486.50;;;19.67;60.94
18678;BME280;9469;51.114;13.914;2023-09-19T18:17:36;98489.16;;;19.63;61.21
18678;BME280;9469;51.114;13.914;2023-09-19T18:22:49;98499.63;;;19.68;61.09
18678;BME280;9469;51.114;13.914;2023-09-19T18:27:56;98513.16;;;19.46;61.54
18678;BME280;9469;51.114;13.914;2023-09-19T18:33:04;98515.41;;;19.66;61.99
18678;BME280;9469;51.114;13.914;2023-09-19T18:38:10;98524.66;;;19.43;61.66
18678;BME280;9469;51.114;13.914;2023-09-19T18:43:17;98517.13;;;19.29;62.57
18678;BME280;9469;51.114;13.914;2023-09-19T18:48:30;98526.59;;;19.19;62.83
18678;BME280;9469;51.114;13.914;2023-09-19T18:53:37;98521.09;;;19.12;63.18
18678;BME280;9469;51.114;13.914;2023-09-19T18:58:49;98526.66;;;19.00;64.07
18678;BME280;9469;51.114;13.914;2023-09-19T19:04:03;98526.94;;;19.18;63.47
18678;BME280;9469;51.114;13.914;2023-09-19T19:09:18;98536.03;;;19.06;63.98
18678;BME280;9469;51.114;13.914;2023-09-19T19:14:26;98525.25;;;19.06;64.56
18678;BME280;9469;51.114;13.914;2023-09-19T19:19:35;98535.13;;;18.99;64.26
18678;BME280;9469;51.114;13.914;2023-09-19T19:24:41;98541.28;;;18.99;64.76
18678;BME280;9469;51.114;13.914;2023-09-19T19:29:49;98541.03;;;18.85;65.69
18678;BME280;9469;51.114;13.914;2023-09-19T19:35:00;98537.38;;;18.74;66.81
18678;BME280;9469;51.114;13.914;2023-09-19T19:40:12;98537.78;;;18.76;67.75
18678;BME280;9469;51.114;13.914;2023-09-19T19:45:19;98545.28;;;18.86;67.89
18678;BME280;9469;51.114;13.914;2023-09-19T19:50:31;98545.88;;;18.76;68.39
18678;BME280;9469;51.114;13.914;2023-09-19T19:55:38;98546.19;;;18.52;69.54
18678;BME280;9469;51.114;13.914;2023-09-19T20:00:45;98542.75;;;18.55;69.84
18678;BME280;9469;51.114;13.914;2023-09-19T20:05:53;98554.78;;;18.23;71.58
18678;BME280;9469;51.114;13.914;2023-09-19T20:11:03;98561.38;;;18.25;71.73
18678;BME280;9469;51.114;13.914;2023-09-19T20:16:13;98549.16;;;18.47;71.53
18678;BME280;9469;51.114;13.914;2023-09-19T20:21:21;98558.91;;;18.36;72.61
18678;BME280;9469;51.114;13.914;2023-09-19T20:26:27;98554.03;;;18.22;73.63
18678;BME280;9469;51.114;13.914;2023-09-19T20:31:35;98548.88;;;17.98;77.56
18678;BME280;9469;51.114;13.914;2023-09-19T20:36:49;98545.53;;;18.20;74.56
18678;BME280;9469;51.114;13.914;2023-09-19T20:41:54;98542.88;;;18.05;74.73
18678;BME280;9469;51.114;13.914;2023-09-19T20:46:59;98545.28;;;17.90;75.69
18678;BME280;9469;51.114;13.914;2023-09-19T20:52:10;98540.75;;;17.95;76.15
18678;BME280;9469;51.114;13.914;2023-09-19T20:57:17;98541.72;;;17.86;76.72
18678;BME280;9469;51.114;13.914;2023-09-19T21:02:23;98540.66;;;17.56;79.02
18678;BME280;9469;51.114;13.914;2023-09-19T21:07:33;98539.03;;;17.71;81.40
18678;BME280;9469;51.114;13.914;2023-09-19T21:12:43;98537.25;;;17.28;86.23
18678;BME280;9469;51.114;13.914;2023-09-19T21:17:49;98552.88;;;17.23;85.32
18678;BME280;9469;51.114;13.914;2023-09-19T21:23:00;98547.75;;;16.46;90.15
18678;BME280;9469;51.114;13.914;2023-09-19T21:28:11;98541.97;;;16.44;89.95
18678;BME280;9469;51.114;13.914;2023-09-19T21:33:16;98542.56;;;16.66;87.09
18678;BME280;9469;51.114;13.914;2023-09-19T21:38:27;98549.03;;;16.92;83.50
18678;BME280;9469;51.114;13.914;2023-09-19T21:43:33;98538.47;;;16.99;83.18
18678;BME280;9469;51.114;13.914;2023-09-19T21:48:39;98530.66;;;16.94;84.29
18678;BME280;9469;51.114;13.914;2023-09-19T21:53:49;98530.03;;;17.01;82.95
18678;BME280;9469;51.114;13.914;2023-09-19T21:58:54;98532.56;;;16.94;85.34
18678;BME280;9469;51.114;13.914;2023-09-19T22:04:00;98530.75;;;16.15;93.82
18678;BME280;9469;51.114;13.914;2023-09-19T22:09:08;98529.38;;;16.61;89.42
18678;BME280;9469;51.114;13.914;2023-09-19T22:14:13;98524.56;;;16.66;88.34
18678;BME280;9469;51.114;13.914;2023-09-19T22:19:18;98526.22;;;16.71;85.19
18678;BME280;9469;51.114;13.914;2023-09-19T22:24:28;98517.22;;;16.79;84.34
18678;BME280;9469;51.114;13.914;2023-09-19T22:29:33;98519.13;;;16.94;84.54
18678;BME280;9469;51.114;13.914;2023-09-19T22:34:38;98523.16;;;16.57;91.03
18678;BME280;9469;51.114;13.914;2023-09-19T22:39:46;98513.66;;;16.75;87.81
18678;BME280;9469;51.114;13.914;2023-09-19T22:44:51;98523.34;;;16.64;85.94
18678;BME280;9469;51.114;13.914;2023-09-19T22:49:57;98521.25;;;16.57;86.56
18678;BME280;9469;51.114;13.914;2023-09-19T22:55:11;98512.44;;;16.72;86.06
18678;BME280;9469;51.114;13.914;2023-09-19T23:00:25;98517.44;;;16.58;86.46
18678;BME280;9469;51.114;13.914;2023-09-19T23:05:34;98524.97;;;16.53;87.30
18678;BME280;9469;51.114;13.914;2023-09-19T23:10:45;98526.41;;;16.50;87.76
18678;BME280;9469;51.114;13.914;2023-09-19T23:15:55;98521.13;;;16.54;87.76
18678;BME280;9469;51.114;13.914;2023-09-19T23:21:00;98515.88;;;16.57;87.65
18678;BME280;9469;51.114;13.914;2023-09-19T23:26:16;98520.66;;;16.64;87.37
18678;BME280;9469;51.114;13.914;2023-09-19T23:31:22;98528.88;;;16.55;87.97
18678;BME280;9469;51.114;13.914;2023-09-19T23:36:28;98524.38;;;16.59;87.91
18678;BME280;9469;51.114;13.914;2023-09-19T23:41:37;98531.16;;;16.69;87.86
18678;BME280;9469;51.114;13.914;2023-09-19T23:46:45;98530.41;;;16.56;88.60
18678;BME280;9469;51.114;13.914;2023-09-19T23:51:57;98538.41;;;16.40;89.24
18678;BME280;9469;51.114;13.914;2023-09-19T23:57:05;98531.03;;;16.37;89.88
